createdAt,value
2019-01-31T00:00:14.499Z,995.31
2019-01-31T00:01:14.313Z,995.34
2019-01-31T00:02:14.320Z,995.31
2019-01-31T00:03:21.271Z,995.34
2019-01-31T00:04:14.194Z,995.35
2019-01-31T00:05:14.164Z,995.34
2019-01-31T00:06:14.117Z,995.40
2019-01-31T00:07:14.134Z,995.35
2019-01-31T00:08:14.046Z,995.39
2019-01-31T00:09:14.063Z,995.38
2019-01-31T00:10:13.969Z,995.34
2019-01-31T00:11:13.933Z,995.35
2019-01-31T00:12:13.897Z,995.33
2019-01-31T00:13:13.890Z,995.40
2019-01-31T00:14:13.872Z,995.37
2019-01-31T00:15:13.784Z,995.37
2019-01-31T00:16:13.789Z,995.33
2019-01-31T00:17:13.714Z,995.31
2019-01-31T00:18:13.679Z,995.35
2019-01-31T00:19:13.642Z,995.34
2019-01-31T00:20:13.648Z,995.35
2019-01-31T00:21:13.631Z,995.33
2019-01-31T00:22:13.532Z,995.33
2019-01-31T00:23:13.497Z,995.41
2019-01-31T00:24:13.459Z,995.33
2019-01-31T00:25:13.419Z,995.39
2019-01-31T00:26:13.425Z,995.35
2019-01-31T00:27:13.352Z,995.34
2019-01-31T00:28:13.324Z,995.37
2019-01-31T00:29:13.280Z,995.35
2019-01-31T00:30:13.276Z,995.36
2019-01-31T00:31:13.199Z,995.35
2019-01-31T00:32:13.216Z,995.36
2019-01-31T00:33:13.166Z,995.32
2019-01-31T00:34:13.100Z,995.31
2019-01-31T00:35:13.970Z,995.30
2019-01-31T00:36:13.020Z,995.32
2019-01-31T00:37:13.028Z,995.31
2019-01-31T00:38:12.962Z,995.31
2019-01-31T00:39:12.904Z,995.32
2019-01-31T00:40:12.909Z,995.36
2019-01-31T00:41:12.842Z,995.35
2019-01-31T00:42:12.846Z,995.30
2019-01-31T00:43:12.769Z,995.39
2019-01-31T00:44:12.723Z,995.37
2019-01-31T00:45:12.689Z,995.37
2019-01-31T00:46:12.651Z,995.34
2019-01-31T00:47:12.655Z,995.37
2019-01-31T00:48:12.638Z,995.37
2019-01-31T00:49:13.061Z,995.38
2019-01-31T00:50:12.503Z,995.40
2019-01-31T00:51:12.465Z,995.41
2019-01-31T00:52:12.538Z,995.48
2019-01-31T00:53:12.401Z,995.44
2019-01-31T00:54:12.363Z,995.43
2019-01-31T00:55:12.318Z,995.43
2019-01-31T00:56:12.284Z,995.40
2019-01-31T00:57:12.300Z,995.45
2019-01-31T00:58:12.213Z,995.44
2019-01-31T00:59:12.183Z,995.45
2019-01-31T01:00:12.140Z,995.45
2019-01-31T01:01:12.100Z,995.44
2019-01-31T01:02:12.112Z,995.49
2019-01-31T01:03:12.025Z,995.50
2019-01-31T01:04:12.027Z,995.48
2019-01-31T01:05:11.953Z,995.46
2019-01-31T01:06:11.917Z,995.52
2019-01-31T01:07:11.880Z,995.52
2019-01-31T01:08:11.891Z,995.48
2019-01-31T01:09:11.808Z,995.48
2019-01-31T01:10:12.123Z,995.49
2019-01-31T01:11:11.770Z,995.48
2019-01-31T01:12:11.694Z,995.46
2019-01-31T01:13:11.662Z,995.48
2019-01-31T01:14:12.570Z,995.51
2019-01-31T01:15:11.587Z,995.50
2019-01-31T01:16:11.587Z,995.47
2019-01-31T01:17:11.564Z,995.50
2019-01-31T01:18:11.475Z,995.51
2019-01-31T01:19:11.446Z,995.56
2019-01-31T01:20:11.452Z,995.56
2019-01-31T01:21:11.414Z,995.56
2019-01-31T01:22:11.330Z,995.61
2019-01-31T01:23:11.294Z,995.59
2019-01-31T01:24:11.363Z,995.60
2019-01-31T01:25:11.218Z,995.54
2019-01-31T01:26:11.240Z,995.58
2019-01-31T01:27:11.199Z,995.62
2019-01-31T01:28:11.209Z,995.59
2019-01-31T01:29:11.075Z,995.64
2019-01-31T01:30:11.039Z,995.65
2019-01-31T01:31:10.998Z,995.61
2019-01-31T01:32:11.104Z,995.66
2019-01-31T01:33:10.974Z,995.66
2019-01-31T01:34:10.894Z,995.61
2019-01-31T01:35:10.851Z,995.62
2019-01-31T01:36:10.820Z,995.65
2019-01-31T01:37:10.780Z,995.63
2019-01-31T01:38:10.793Z,995.67
2019-01-31T01:39:18.933Z,995.67
2019-01-31T01:40:10.674Z,995.65
2019-01-31T01:41:10.634Z,995.64
2019-01-31T01:42:10.686Z,995.67
2019-01-31T01:43:10.603Z,995.65
2019-01-31T01:44:10.568Z,995.66
2019-01-31T01:45:10.489Z,995.66
2019-01-31T01:46:10.451Z,995.68
2019-01-31T01:47:10.418Z,995.63
2019-01-31T01:48:10.375Z,995.62
2019-01-31T01:49:10.382Z,995.65
2019-01-31T01:50:10.300Z,995.63
2019-01-31T01:51:10.264Z,995.62
2019-01-31T01:52:10.235Z,995.61
2019-01-31T01:53:10.199Z,995.61
2019-01-31T01:54:10.203Z,995.64
2019-01-31T01:55:10.170Z,995.65
2019-01-31T01:56:10.086Z,995.60
2019-01-31T01:57:10.048Z,995.62
2019-01-31T01:58:10.014Z,995.63
2019-01-31T01:59:10.021Z,995.67
2019-01-31T02:00:09.937Z,995.66
2019-01-31T02:01:09.944Z,995.65
2019-01-31T02:02:09.864Z,995.65
2019-01-31T02:03:09.830Z,995.67
2019-01-31T02:04:09.821Z,995.57
2019-01-31T02:05:09.799Z,995.62
2019-01-31T02:06:09.764Z,995.55
2019-01-31T02:07:09.678Z,995.57
2019-01-31T02:08:09.643Z,995.58
2019-01-31T02:09:09.607Z,995.61
2019-01-31T02:10:09.627Z,995.64
2019-01-31T02:11:09.538Z,995.63
2019-01-31T02:12:09.502Z,995.64
2019-01-31T02:13:09.466Z,995.66
2019-01-31T02:14:09.454Z,995.61
2019-01-31T02:15:09.982Z,995.62
2019-01-31T02:16:09.350Z,995.62
2019-01-31T02:17:09.360Z,995.70
2019-01-31T02:18:10.068Z,995.69
2019-01-31T02:19:09.239Z,995.65
2019-01-31T02:20:09.208Z,995.68
2019-01-31T02:21:09.206Z,995.66
2019-01-31T02:22:09.130Z,995.66
2019-01-31T02:23:09.100Z,995.66
2019-01-31T02:24:09.073Z,995.67
2019-01-31T02:25:09.018Z,995.65
2019-01-31T02:26:09.043Z,995.65
2019-01-31T02:27:08.945Z,995.70
2019-01-31T02:28:08.911Z,995.62
2019-01-31T02:29:08.877Z,995.68
2019-01-31T02:30:08.838Z,995.63
2019-01-31T02:31:08.855Z,995.63
2019-01-31T02:32:08.769Z,995.63
2019-01-31T02:33:08.729Z,995.63
2019-01-31T02:34:08.742Z,995.60
2019-01-31T02:35:08.658Z,995.63
2019-01-31T02:36:08.667Z,995.59
2019-01-31T02:37:08.582Z,995.57
2019-01-31T02:38:08.565Z,995.55
2019-01-31T02:39:14.475Z,995.55
2019-01-31T02:40:08.522Z,995.52
2019-01-31T02:41:08.439Z,995.54
2019-01-31T02:42:08.444Z,995.56
2019-01-31T02:43:08.392Z,995.54
2019-01-31T02:44:08.327Z,995.53
2019-01-31T02:45:08.332Z,995.53
2019-01-31T02:46:08.253Z,995.53
2019-01-31T02:47:08.266Z,995.52
2019-01-31T02:48:08.219Z,995.55
2019-01-31T02:49:08.142Z,995.55
2019-01-31T02:50:08.170Z,995.59
2019-01-31T02:51:08.074Z,995.64
2019-01-31T02:52:08.030Z,995.60
2019-01-31T02:53:08.049Z,995.59
2019-01-31T02:54:07.968Z,995.63
2019-01-31T02:55:07.928Z,995.65
2019-01-31T02:56:07.886Z,995.65
2019-01-31T02:57:07.889Z,995.68
2019-01-31T02:58:07.856Z,995.66
2019-01-31T02:59:07.835Z,995.68
2019-01-31T03:00:07.741Z,995.67
2019-01-31T03:01:07.746Z,995.66
2019-01-31T03:02:07.666Z,995.72
2019-01-31T03:03:07.636Z,995.69
2019-01-31T03:04:07.631Z,995.71
2019-01-31T03:05:07.555Z,995.71
2019-01-31T03:06:07.559Z,995.75
2019-01-31T03:07:07.537Z,995.78
2019-01-31T03:08:07.443Z,995.73
2019-01-31T03:09:07.412Z,995.73
2019-01-31T03:10:08.080Z,995.76
2019-01-31T03:11:07.333Z,995.71
2019-01-31T03:12:07.353Z,995.70
2019-01-31T03:13:07.263Z,995.75
2019-01-31T03:14:10.149Z,995.74
2019-01-31T03:15:07.192Z,995.76
2019-01-31T03:16:07.148Z,995.72
2019-01-31T03:17:07.153Z,995.78
2019-01-31T03:18:07.080Z,995.74
2019-01-31T03:19:07.073Z,995.71
2019-01-31T03:20:07.571Z,995.74
2019-01-31T03:21:06.966Z,995.71
2019-01-31T03:22:06.924Z,995.70
2019-01-31T03:23:06.978Z,995.67
2019-01-31T03:24:06.900Z,995.65
2019-01-31T03:25:06.865Z,995.63
2019-01-31T03:26:06.787Z,995.64
2019-01-31T03:27:06.754Z,995.69
2019-01-31T03:28:06.705Z,995.73
2019-01-31T03:29:06.672Z,995.74
2019-01-31T03:30:06.687Z,995.72
2019-01-31T03:31:06.598Z,995.76
2019-01-31T03:32:06.564Z,995.79
2019-01-31T03:33:06.527Z,995.77
2019-01-31T03:34:06.489Z,995.79
2019-01-31T03:35:06.487Z,995.77
2019-01-31T03:36:07.979Z,995.80
2019-01-31T03:37:06.382Z,995.77
2019-01-31T03:38:06.355Z,995.79
2019-01-31T03:39:06.307Z,995.81
2019-01-31T03:40:07.495Z,995.81
2019-01-31T03:41:06.239Z,995.78
2019-01-31T03:42:06.195Z,995.77
2019-01-31T03:43:06.167Z,995.77
2019-01-31T03:44:06.121Z,995.77
2019-01-31T03:45:06.135Z,995.79
2019-01-31T03:46:06.987Z,995.75
2019-01-31T03:47:06.016Z,995.76
2019-01-31T03:48:05.978Z,995.77
2019-01-31T03:49:05.982Z,995.80
2019-01-31T03:50:06.956Z,995.81
2019-01-31T03:51:05.863Z,995.83
2019-01-31T03:52:05.847Z,995.85
2019-01-31T03:53:05.795Z,995.84
2019-01-31T03:54:05.806Z,995.82
2019-01-31T03:55:05.718Z,995.79
2019-01-31T03:56:05.681Z,995.81
2019-01-31T03:57:05.657Z,995.85
2019-01-31T03:58:05.654Z,995.84
2019-01-31T03:59:05.579Z,995.83
2019-01-31T04:00:05.539Z,995.81
2019-01-31T04:01:05.504Z,995.83
2019-01-31T04:02:05.464Z,995.81
2019-01-31T04:03:05.475Z,995.81
2019-01-31T04:04:05.394Z,995.78
2019-01-31T04:05:05.413Z,995.77
2019-01-31T04:06:05.364Z,995.79
2019-01-31T04:07:05.286Z,995.76
2019-01-31T04:08:05.245Z,995.78
2019-01-31T04:09:05.210Z,995.80
2019-01-31T04:10:05.188Z,995.76
2019-01-31T04:11:05.183Z,995.76
2019-01-31T04:12:05.107Z,995.77
2019-01-31T04:13:05.981Z,995.78
2019-01-31T04:14:05.030Z,995.77
2019-01-31T04:15:05.529Z,995.75
2019-01-31T04:16:05.034Z,995.79
2019-01-31T04:17:05.004Z,995.79
2019-01-31T04:18:04.969Z,995.79
2019-01-31T04:19:04.851Z,995.79
2019-01-31T04:20:04.809Z,995.81
2019-01-31T04:21:04.781Z,995.79
2019-01-31T04:22:04.794Z,995.77
2019-01-31T04:23:04.702Z,995.79
2019-01-31T04:24:04.716Z,995.78
2019-01-31T04:25:04.626Z,995.83
2019-01-31T04:26:04.589Z,995.84
2019-01-31T04:27:04.550Z,995.88
2019-01-31T04:28:04.574Z,995.85
2019-01-31T04:29:04.479Z,995.90
2019-01-31T04:30:04.443Z,995.91
2019-01-31T04:31:04.416Z,995.92
2019-01-31T04:32:04.383Z,995.88
2019-01-31T04:33:04.389Z,995.86
2019-01-31T04:34:04.340Z,995.90
2019-01-31T04:35:04.256Z,995.86
2019-01-31T04:36:04.220Z,995.89
2019-01-31T04:37:04.206Z,995.90
2019-01-31T04:38:04.190Z,995.89
2019-01-31T04:39:04.123Z,995.92
2019-01-31T04:40:04.079Z,995.91
2019-01-31T04:41:04.081Z,995.91
2019-01-31T04:42:04.004Z,995.95
2019-01-31T04:43:04.039Z,995.96
2019-01-31T04:44:03.928Z,995.97
2019-01-31T04:45:03.900Z,995.95
2019-01-31T04:46:03.909Z,995.96
2019-01-31T04:47:03.838Z,995.90
2019-01-31T04:48:03.781Z,995.88
2019-01-31T04:49:03.748Z,995.93
2019-01-31T04:50:03.750Z,995.90
2019-01-31T04:51:04.143Z,995.94
2019-01-31T04:52:03.635Z,995.93
2019-01-31T04:53:03.660Z,995.94
2019-01-31T04:54:03.560Z,995.90
2019-01-31T04:55:03.593Z,995.95
2019-01-31T04:56:03.539Z,995.97
2019-01-31T04:57:03.498Z,995.98
2019-01-31T04:58:03.419Z,995.98
2019-01-31T04:59:03.378Z,995.98
2019-01-31T05:00:03.416Z,996.02
2019-01-31T05:01:03.353Z,996.00
2019-01-31T05:02:04.082Z,996.01
2019-01-31T05:03:03.273Z,996.00
2019-01-31T05:04:03.199Z,996.04
2019-01-31T05:05:03.167Z,996.07
2019-01-31T05:06:03.123Z,996.02
2019-01-31T05:07:03.127Z,996.03
2019-01-31T05:08:03.042Z,996.06
2019-01-31T05:09:03.006Z,996.12
2019-01-31T05:10:03.000Z,996.14
2019-01-31T05:11:02.947Z,996.15
2019-01-31T05:12:03.131Z,996.17
2019-01-31T05:13:02.915Z,996.12
2019-01-31T05:14:02.822Z,996.14
2019-01-31T05:15:02.787Z,996.11
2019-01-31T05:16:03.806Z,996.14
2019-01-31T05:17:02.757Z,996.16
2019-01-31T05:18:02.672Z,996.18
2019-01-31T05:19:02.638Z,996.15
2019-01-31T05:20:02.651Z,996.17
2019-01-31T05:21:02.563Z,996.15
2019-01-31T05:22:02.540Z,996.16
2019-01-31T05:23:02.489Z,996.19
2019-01-31T05:24:02.451Z,996.19
2019-01-31T05:25:02.474Z,996.18
2019-01-31T05:26:02.390Z,996.19
2019-01-31T05:27:04.409Z,996.22
2019-01-31T05:28:02.302Z,996.20
2019-01-31T05:29:02.269Z,996.22
2019-01-31T05:30:02.629Z,996.24
2019-01-31T05:31:02.268Z,996.23
2019-01-31T05:32:02.158Z,996.25
2019-01-31T05:33:02.132Z,996.27
2019-01-31T05:34:02.136Z,996.29
2019-01-31T05:35:05.986Z,996.28
2019-01-31T05:36:02.008Z,996.30
2019-01-31T05:37:02.018Z,996.27
2019-01-31T05:38:01.960Z,996.30
2019-01-31T05:39:01.899Z,996.34
2019-01-31T05:40:02.544Z,996.34
2019-01-31T05:41:01.899Z,996.35
2019-01-31T05:42:01.833Z,996.35
2019-01-31T05:43:01.753Z,996.37
2019-01-31T05:44:01.717Z,996.42
2019-01-31T05:45:02.579Z,996.37
2019-01-31T05:46:01.734Z,996.38
2019-01-31T05:47:01.608Z,996.37
2019-01-31T05:48:01.659Z,996.39
2019-01-31T05:49:01.567Z,996.38
2019-01-31T05:50:01.588Z,996.39
2019-01-31T05:51:01.461Z,996.36
2019-01-31T05:52:01.423Z,996.37
2019-01-31T05:53:01.437Z,996.41
2019-01-31T05:54:01.359Z,996.43
2019-01-31T05:55:01.309Z,996.42
2019-01-31T05:56:01.274Z,996.41
2019-01-31T05:57:01.250Z,996.44
2019-01-31T05:58:01.264Z,996.40
2019-01-31T05:59:01.171Z,996.40
2019-01-31T06:00:01.155Z,996.40
2019-01-31T06:01:01.152Z,996.40
2019-01-31T06:02:01.053Z,996.40
2019-01-31T06:03:01.015Z,996.39
2019-01-31T06:04:08.037Z,996.45
2019-01-31T06:05:00.946Z,996.44
2019-01-31T06:06:00.965Z,996.41
2019-01-31T06:07:10.865Z,996.44
2019-01-31T06:08:00.836Z,996.42
2019-01-31T06:09:00.798Z,996.48
2019-01-31T06:10:00.761Z,996.49
2019-01-31T06:11:07.655Z,996.49
2019-01-31T06:12:00.743Z,996.48
2019-01-31T06:13:00.741Z,996.46
2019-01-31T06:14:00.615Z,996.53
2019-01-31T06:15:00.601Z,996.52
2019-01-31T06:16:00.587Z,996.53
2019-01-31T06:17:00.512Z,996.56
2019-01-31T06:18:00.474Z,996.52
2019-01-31T06:19:00.459Z,996.54
2019-01-31T06:20:00.446Z,996.59
2019-01-31T06:21:00.359Z,996.58
2019-01-31T06:22:00.324Z,996.53
2019-01-31T06:23:00.288Z,996.57
2019-01-31T06:24:00.254Z,996.57
2019-01-31T06:25:00.308Z,996.55
2019-01-31T06:26:00.184Z,996.57
2019-01-31T06:27:00.147Z,996.58
2019-01-31T06:28:00.154Z,996.59
2019-01-31T06:29:00.146Z,996.59
2019-01-31T06:30:00.134Z,996.59
2019-01-31T06:31:00.074Z,996.61
2019-01-31T06:32:00.061Z,996.66
2019-01-31T06:33:01.014Z,996.64
2019-01-31T06:33:59.981Z,996.66
2019-01-31T06:34:59.962Z,996.68
2019-01-31T06:35:59.905Z,996.70
2019-01-31T06:36:59.787Z,996.69
2019-01-31T06:37:59.794Z,996.72
2019-01-31T06:38:59.712Z,996.68
2019-01-31T06:39:59.722Z,996.72
2019-01-31T06:40:59.640Z,996.70
2019-01-31T06:41:59.616Z,996.72
2019-01-31T06:42:59.566Z,996.75
2019-01-31T06:43:59.532Z,996.78
2019-01-31T06:44:59.541Z,996.75
2019-01-31T06:45:59.461Z,996.74
2019-01-31T06:46:59.454Z,996.74
2019-01-31T06:47:59.445Z,996.76
2019-01-31T06:48:59.353Z,996.79
2019-01-31T06:49:59.317Z,996.75
2019-01-31T06:50:59.281Z,996.78
2019-01-31T06:51:59.291Z,996.77
2019-01-31T06:52:59.213Z,996.80
2019-01-31T06:53:59.222Z,996.78
2019-01-31T06:54:59.138Z,996.79
2019-01-31T06:55:59.104Z,996.77
2019-01-31T06:56:59.082Z,996.74
2019-01-31T06:57:59.033Z,996.78
2019-01-31T06:58:59.057Z,996.80
2019-01-31T06:59:58.960Z,996.79
2019-01-31T07:00:58.925Z,996.82
2019-01-31T07:01:58.886Z,996.78
2019-01-31T07:02:58.850Z,996.80
2019-01-31T07:03:58.875Z,996.87
2019-01-31T07:04:58.783Z,996.82
2019-01-31T07:05:58.747Z,996.83
2019-01-31T07:06:58.713Z,996.84
2019-01-31T07:07:58.686Z,996.83
2019-01-31T07:08:58.682Z,996.80
2019-01-31T07:09:58.609Z,996.83
2019-01-31T07:10:58.567Z,996.87
2019-01-31T07:11:58.532Z,996.82
2019-01-31T07:12:58.494Z,996.81
2019-01-31T07:13:58.502Z,996.83
2019-01-31T07:14:58.464Z,996.80
2019-01-31T07:15:58.389Z,996.78
2019-01-31T07:16:58.399Z,996.76
2019-01-31T07:17:58.331Z,996.76
2019-01-31T07:18:58.282Z,996.77
2019-01-31T07:19:58.299Z,996.78
2019-01-31T07:20:58.275Z,996.78
2019-01-31T07:21:58.205Z,996.77
2019-01-31T07:22:58.139Z,996.76
2019-01-31T07:23:58.110Z,996.80
2019-01-31T07:24:58.080Z,996.78
2019-01-31T07:25:58.087Z,996.78
2019-01-31T07:26:58.046Z,996.75
2019-01-31T07:27:57.968Z,996.78
2019-01-31T07:28:57.927Z,996.77
2019-01-31T07:29:57.895Z,996.80
2019-01-31T07:30:58.001Z,996.81
2019-01-31T07:31:57.882Z,996.86
2019-01-31T07:32:57.787Z,996.83
2019-01-31T07:33:57.757Z,996.85
2019-01-31T07:34:57.715Z,996.87
2019-01-31T07:35:57.728Z,996.89
2019-01-31T07:36:57.698Z,996.84
2019-01-31T07:37:57.653Z,996.91
2019-01-31T07:38:57.630Z,996.89
2019-01-31T07:39:57.578Z,996.91
2019-01-31T07:40:57.502Z,996.89
2019-01-31T07:41:57.467Z,996.92
2019-01-31T07:42:57.484Z,996.93
2019-01-31T07:43:57.397Z,996.99
2019-01-31T07:44:57.364Z,997.00
2019-01-31T07:45:57.325Z,996.95
2019-01-31T07:46:57.376Z,996.95
2019-01-31T07:47:57.302Z,996.97
2019-01-31T07:48:57.221Z,996.99
2019-01-31T07:49:57.187Z,996.97
2019-01-31T07:50:57.151Z,996.98
2019-01-31T07:51:57.160Z,997.01
2019-01-31T07:52:57.079Z,997.04
2019-01-31T07:53:57.064Z,997.05
2019-01-31T07:54:57.009Z,997.08
2019-01-31T07:55:57.174Z,997.09
2019-01-31T07:56:56.956Z,997.06
2019-01-31T07:57:56.911Z,997.09
2019-01-31T07:58:56.866Z,997.09
2019-01-31T07:59:56.879Z,997.09
2019-01-31T08:00:56.800Z,997.07
2019-01-31T08:01:56.843Z,997.09
2019-01-31T08:02:56.725Z,997.07
2019-01-31T08:04:02.564Z,997.07
2019-01-31T08:04:56.710Z,997.08
2019-01-31T08:05:56.628Z,997.08
2019-01-31T08:06:56.584Z,997.09
2019-01-31T08:07:56.558Z,997.08
2019-01-31T08:08:56.516Z,997.12
2019-01-31T08:09:56.548Z,997.12
2019-01-31T08:10:56.458Z,997.09
2019-01-31T08:11:56.408Z,997.13
2019-01-31T08:12:56.377Z,997.17
2019-01-31T08:13:56.344Z,997.11
2019-01-31T08:14:56.350Z,997.14
2019-01-31T08:15:56.311Z,997.14
2019-01-31T08:16:56.239Z,997.19
2019-01-31T08:17:56.201Z,997.16
2019-01-31T08:18:56.165Z,997.16
2019-01-31T08:19:56.131Z,997.16
2019-01-31T08:20:56.144Z,997.24
2019-01-31T08:21:56.061Z,997.24
2019-01-31T08:22:56.027Z,997.22
2019-01-31T08:23:55.990Z,997.24
2019-01-31T08:24:55.958Z,997.27
2019-01-31T08:25:55.972Z,997.28
2019-01-31T08:26:56.093Z,997.26
2019-01-31T08:27:55.867Z,997.27
2019-01-31T08:28:55.814Z,997.29
2019-01-31T08:29:55.780Z,997.30
2019-01-31T08:30:55.810Z,997.29
2019-01-31T08:31:55.717Z,997.25
2019-01-31T08:32:55.682Z,997.26
2019-01-31T08:33:55.640Z,997.27
2019-01-31T08:34:55.606Z,997.30
2019-01-31T08:35:55.619Z,997.27
2019-01-31T08:36:55.535Z,997.28
2019-01-31T08:37:55.499Z,997.29
2019-01-31T08:38:55.507Z,997.31
2019-01-31T08:39:55.473Z,997.30
2019-01-31T08:40:55.404Z,997.32
2019-01-31T08:42:03.482Z,997.35
2019-01-31T08:42:55.328Z,997.35
2019-01-31T08:43:55.336Z,997.35
2019-01-31T08:44:55.255Z,997.32
2019-01-31T08:45:55.221Z,997.32
2019-01-31T08:46:55.189Z,997.32
2019-01-31T08:47:55.147Z,997.34
2019-01-31T08:48:55.175Z,997.33
2019-01-31T08:49:55.124Z,997.38
2019-01-31T08:50:55.084Z,997.39
2019-01-31T08:51:55.008Z,997.35
2019-01-31T08:52:55.014Z,997.35
2019-01-31T08:53:54.938Z,997.36
2019-01-31T08:54:54.948Z,997.34
2019-01-31T08:55:54.907Z,997.33
2019-01-31T08:56:54.834Z,997.39
2019-01-31T08:57:54.839Z,997.38
2019-01-31T08:58:54.807Z,997.42
2019-01-31T08:59:54.726Z,997.42
2019-01-31T09:00:54.756Z,997.44
2019-01-31T09:01:54.659Z,997.44
2019-01-31T09:02:54.620Z,997.41
2019-01-31T09:03:54.596Z,997.42
2019-01-31T09:04:54.554Z,997.46
2019-01-31T09:05:54.567Z,997.47
2019-01-31T09:06:54.483Z,997.45
2019-01-31T09:07:54.446Z,997.46
2019-01-31T09:08:54.473Z,997.45
2019-01-31T09:09:54.384Z,997.41
2019-01-31T09:10:54.396Z,997.42
2019-01-31T09:11:54.306Z,997.40
2019-01-31T09:12:54.271Z,997.40
2019-01-31T09:13:54.236Z,997.41
2019-01-31T09:14:54.206Z,997.47
2019-01-31T09:15:54.221Z,997.49
2019-01-31T09:16:54.138Z,997.47
2019-01-31T09:17:54.136Z,997.53
2019-01-31T09:18:54.063Z,997.50
2019-01-31T09:19:54.028Z,997.47
2019-01-31T09:20:54.070Z,997.54
2019-01-31T09:21:53.964Z,997.53
2019-01-31T09:22:53.922Z,997.56
2019-01-31T09:23:53.900Z,997.56
2019-01-31T09:24:53.852Z,997.56
2019-01-31T09:25:53.866Z,997.55
2019-01-31T09:26:53.799Z,997.56
2019-01-31T09:27:53.755Z,997.59
2019-01-31T09:28:53.716Z,997.59
2019-01-31T09:29:54.380Z,997.55
2019-01-31T09:30:53.691Z,997.60
2019-01-31T09:31:53.625Z,997.58
2019-01-31T09:32:53.578Z,997.58
2019-01-31T09:33:53.543Z,997.58
2019-01-31T09:34:53.510Z,997.61
2019-01-31T09:35:53.692Z,997.62
2019-01-31T09:36:53.437Z,997.60
2019-01-31T09:37:53.444Z,997.62
2019-01-31T09:38:53.365Z,997.58
2019-01-31T09:39:53.391Z,997.60
2019-01-31T09:40:53.293Z,997.56
2019-01-31T09:41:53.261Z,997.51
2019-01-31T09:42:53.231Z,997.55
2019-01-31T09:43:53.251Z,997.55
2019-01-31T09:44:53.195Z,997.58
2019-01-31T09:45:53.119Z,997.54
2019-01-31T09:46:53.087Z,997.55
2019-01-31T09:47:53.096Z,997.53
2019-01-31T09:48:53.683Z,997.52
2019-01-31T09:49:53.104Z,997.56
2019-01-31T09:50:52.953Z,997.58
2019-01-31T09:51:52.909Z,997.58
2019-01-31T09:52:54.482Z,997.59
2019-01-31T09:53:52.892Z,997.56
2019-01-31T09:54:52.803Z,997.53
2019-01-31T09:55:52.775Z,997.53
2019-01-31T09:56:52.736Z,997.52
2019-01-31T09:57:52.704Z,997.53
2019-01-31T09:58:52.731Z,997.56
2019-01-31T09:59:52.636Z,997.51
2019-01-31T10:00:52.641Z,997.55
2019-01-31T10:01:53.125Z,997.58
2019-01-31T10:02:52.525Z,997.58
2019-01-31T10:03:52.502Z,997.57
2019-01-31T10:04:52.511Z,997.62
2019-01-31T10:05:52.418Z,997.59
2019-01-31T10:06:52.386Z,997.59
2019-01-31T10:07:52.354Z,997.56
2019-01-31T10:08:52.318Z,997.57
2019-01-31T10:09:52.366Z,997.57
2019-01-31T10:10:52.337Z,997.58
2019-01-31T10:11:52.234Z,997.60
2019-01-31T10:12:52.177Z,997.54
2019-01-31T10:13:52.144Z,997.58
2019-01-31T10:14:52.223Z,997.55
2019-01-31T10:15:52.138Z,997.56
2019-01-31T10:16:52.170Z,997.58
2019-01-31T10:17:52.015Z,997.57
2019-01-31T10:18:51.994Z,997.54
2019-01-31T10:19:51.944Z,997.54
2019-01-31T10:20:51.955Z,997.57
2019-01-31T10:21:51.876Z,997.58
2019-01-31T10:22:51.834Z,997.55
2019-01-31T10:23:51.870Z,997.57
2019-01-31T10:24:54.444Z,997.57
2019-01-31T10:25:51.777Z,997.60
2019-01-31T10:26:51.702Z,997.56
2019-01-31T10:27:51.660Z,997.54
2019-01-31T10:28:51.628Z,997.56
2019-01-31T10:29:53.037Z,997.52
2019-01-31T10:30:51.605Z,997.52
2019-01-31T10:31:51.526Z,997.49
2019-01-31T10:32:51.491Z,997.52
2019-01-31T10:33:51.501Z,997.54
2019-01-31T10:34:51.418Z,997.53
2019-01-31T10:35:51.396Z,997.50
2019-01-31T10:36:51.363Z,997.54
2019-01-31T10:37:51.317Z,997.51
2019-01-31T10:38:51.337Z,997.50
2019-01-31T10:39:51.248Z,997.46
2019-01-31T10:40:51.215Z,997.49
2019-01-31T10:41:51.177Z,997.52
2019-01-31T10:42:52.327Z,997.48
2019-01-31T10:43:51.153Z,997.45
2019-01-31T10:44:51.077Z,997.51
2019-01-31T10:45:51.043Z,997.52
2019-01-31T10:46:51.013Z,997.49
2019-01-31T10:47:50.978Z,997.47
2019-01-31T10:48:50.985Z,997.53
2019-01-31T10:49:50.909Z,997.51
2019-01-31T10:50:50.874Z,997.50
2019-01-31T10:51:50.858Z,997.49
2019-01-31T10:52:50.854Z,997.47
2019-01-31T10:53:50.774Z,997.48
2019-01-31T10:54:50.734Z,997.44
2019-01-31T10:55:50.704Z,997.45
2019-01-31T10:56:50.725Z,997.49
2019-01-31T10:57:50.635Z,997.44
2019-01-31T10:58:50.600Z,997.46
2019-01-31T10:59:50.566Z,997.44
2019-01-31T11:00:50.573Z,997.48
2019-01-31T11:01:50.502Z,997.43
2019-01-31T11:02:50.467Z,997.43
2019-01-31T11:03:50.430Z,997.41
2019-01-31T11:04:50.392Z,997.44
2019-01-31T11:05:50.684Z,997.40
2019-01-31T11:06:50.328Z,997.43
2019-01-31T11:07:50.333Z,997.44
2019-01-31T11:08:50.254Z,997.44
2019-01-31T11:09:50.221Z,997.49
2019-01-31T11:10:50.237Z,997.49
2019-01-31T11:11:50.202Z,997.49
2019-01-31T11:12:59.982Z,997.47
2019-01-31T11:13:50.086Z,997.46
2019-01-31T11:14:50.049Z,997.48
2019-01-31T11:15:50.073Z,997.48
2019-01-31T11:16:49.983Z,997.46
2019-01-31T11:17:49.949Z,997.41
2019-01-31T11:18:49.913Z,997.43
2019-01-31T11:19:49.880Z,997.43
2019-01-31T11:20:49.908Z,997.45
2019-01-31T11:21:53.038Z,997.45
2019-01-31T11:22:49.775Z,997.43
2019-01-31T11:23:49.743Z,997.43
2019-01-31T11:24:50.538Z,997.43
2019-01-31T11:25:49.714Z,997.47
2019-01-31T11:26:49.647Z,997.47
2019-01-31T11:27:49.606Z,997.46
2019-01-31T11:28:50.539Z,997.48
2019-01-31T11:29:49.587Z,997.48
2019-01-31T11:30:49.506Z,997.45
2019-01-31T11:31:49.474Z,997.46
2019-01-31T11:32:49.437Z,997.45
2019-01-31T11:33:49.414Z,997.47
2019-01-31T11:34:50.416Z,997.43
2019-01-31T11:35:49.354Z,997.46
2019-01-31T11:36:50.040Z,997.43
2019-01-31T11:37:49.368Z,997.38
2019-01-31T11:38:50.040Z,997.38
2019-01-31T11:39:50.141Z,997.39
2019-01-31T11:40:49.217Z,997.41
2019-01-31T11:41:49.133Z,997.38
2019-01-31T11:42:49.104Z,997.39
2019-01-31T11:43:49.081Z,997.38
2019-01-31T11:44:49.131Z,997.37
2019-01-31T11:45:49.011Z,997.35
2019-01-31T11:46:48.978Z,997.36
2019-01-31T11:47:48.930Z,997.41
2019-01-31T11:48:48.904Z,997.39
2019-01-31T11:49:50.026Z,997.39
2019-01-31T11:50:48.854Z,997.40
2019-01-31T11:51:48.804Z,997.41
2019-01-31T11:52:48.767Z,997.43
2019-01-31T11:53:48.735Z,997.40
2019-01-31T11:54:48.744Z,997.39
2019-01-31T11:55:48.678Z,997.35
2019-01-31T11:56:48.630Z,997.37
2019-01-31T11:57:48.652Z,997.38
2019-01-31T11:58:48.565Z,997.36
2019-01-31T11:59:48.600Z,997.41
2019-01-31T12:00:48.499Z,997.41
2019-01-31T12:01:48.464Z,997.37
2019-01-31T12:02:55.181Z,997.41
2019-01-31T12:03:48.397Z,997.41
2019-01-31T12:04:48.370Z,997.40
2019-01-31T12:05:48.374Z,997.41
2019-01-31T12:06:48.317Z,997.43
2019-01-31T12:07:48.269Z,997.38
2019-01-31T12:08:48.283Z,997.38
2019-01-31T12:09:48.216Z,997.41
2019-01-31T12:10:48.166Z,997.41
2019-01-31T12:11:48.133Z,997.41
2019-01-31T12:12:48.098Z,997.38
2019-01-31T12:13:48.113Z,997.42
2019-01-31T12:14:48.057Z,997.36
2019-01-31T12:15:48.001Z,997.37
2019-01-31T12:16:47.972Z,997.36
2019-01-31T12:17:47.940Z,997.36
2019-01-31T12:18:47.956Z,997.36
2019-01-31T12:19:47.872Z,997.37
2019-01-31T12:20:47.843Z,997.35
2019-01-31T12:21:47.859Z,997.34
2019-01-31T12:22:47.785Z,997.30
2019-01-31T12:23:47.746Z,997.32
2019-01-31T12:24:47.712Z,997.29
2019-01-31T12:25:47.689Z,997.29
2019-01-31T12:26:48.192Z,997.28
2019-01-31T12:27:47.623Z,997.29